sensor_id;sensor_type;location;lat;lon;timestamp;temperature;humidity
77693;SHT31;66984;47.404;18.836;2023-04-29T00:00:17;13.44;54.18
77693;SHT31;66984;47.404;18.836;2023-04-29T00:01:20;13.46;53.49
77693;SHT31;66984;47.404;18.836;2023-04-29T00:02:23;13.46;53.65
77693;SHT31;66984;47.404;18.836;2023-04-29T00:03:26;13.47;53.21
77693;SHT31;66984;47.404;18.836;2023-04-29T00:04:31;13.48;53.10
77693;SHT31;66984;47.404;18.836;2023-04-29T00:05:34;13.46;52.66
77693;SHT31;66984;47.404;18.836;2023-04-29T00:06:37;13.50;52.60
77693;SHT31;66984;47.404;18.836;2023-04-29T00:07:40;13.53;52.55
77693;SHT31;66984;47.404;18.836;2023-04-29T00:08:44;13.53;52.65
77693;SHT31;66984;47.404;18.836;2023-04-29T00:09:47;13.53;52.58
77693;SHT31;66984;47.404;18.836;2023-04-29T00:10:50;13.54;52.42
77693;SHT31;66984;47.404;18.836;2023-04-29T00:11:53;13.56;52.48
77693;SHT31;66984;47.404;18.836;2023-04-29T00:12:56;13.58;52.56
77693;SHT31;66984;47.404;18.836;2023-04-29T00:13:58;13.53;52.47
77693;SHT31;66984;47.404;18.836;2023-04-29T00:15:02;13.57;52.42
77693;SHT31;66984;47.404;18.836;2023-04-29T00:16:06;13.60;52.22
77693;SHT31;66984;47.404;18.836;2023-04-29T00:17:10;13.61;52.23
77693;SHT31;66984;47.404;18.836;2023-04-29T00:18:13;13.61;52.26
77693;SHT31;66984;47.404;18.836;2023-04-29T00:19:16;13.63;52.15
77693;SHT31;66984;47.404;18.836;2023-04-29T00:20:19;13.64;52.13
77693;SHT31;66984;47.404;18.836;2023-04-29T00:21:23;13.66;52.08
77693;SHT31;66984;47.404;18.836;2023-04-29T00:22:26;13.67;52.21
77693;SHT31;66984;47.404;18.836;2023-04-29T00:23:30;13.63;51.98
77693;SHT31;66984;47.404;18.836;2023-04-29T00:24:33;13.63;51.88
77693;SHT31;66984;47.404;18.836;2023-04-29T00:25:36;13.66;52.09
77693;SHT31;66984;47.404;18.836;2023-04-29T00:26:40;13.68;52.11
77693;SHT31;66984;47.404;18.836;2023-04-29T00:27:43;13.67;51.90
77693;SHT31;66984;47.404;18.836;2023-04-29T00:28:46;13.67;51.85
77693;SHT31;66984;47.404;18.836;2023-04-29T00:29:49;13.68;51.89
77693;SHT31;66984;47.404;18.836;2023-04-29T00:30:52;13.64;51.30
77693;SHT31;66984;47.404;18.836;2023-04-29T00:31:55;13.66;51.50
77693;SHT31;66984;47.404;18.836;2023-04-29T00:32:58;13.63;51.37
77693;SHT31;66984;47.404;18.836;2023-04-29T00:34:02;13.63;51.40
77693;SHT31;66984;47.404;18.836;2023-04-29T00:35:05;13.60;51.05
77693;SHT31;66984;47.404;18.836;2023-04-29T00:36:08;13.58;51.41
77693;SHT31;66984;47.404;18.836;2023-04-29T00:37:11;13.61;51.22
77693;SHT31;66984;47.404;18.836;2023-04-29T00:38:14;13.57;51.43
77693;SHT31;66984;47.404;18.836;2023-04-29T00:39:17;13.60;51.72
77693;SHT31;66984;47.404;18.836;2023-04-29T00:40:20;13.60;51.58
77693;SHT31;66984;47.404;18.836;2023-04-29T00:41:23;13.57;51.72
77693;SHT31;66984;47.404;18.836;2023-04-29T00:42:26;13.54;52.45
77693;SHT31;66984;47.404;18.836;2023-04-29T00:43:30;13.57;52.81
77693;SHT31;66984;47.404;18.836;2023-04-29T00:44:33;13.56;53.41
77693;SHT31;66984;47.404;18.836;2023-04-29T00:45:37;13.54;53.60
77693;SHT31;66984;47.404;18.836;2023-04-29T00:46:39;13.56;53.55
77693;SHT31;66984;47.404;18.836;2023-04-29T00:47:43;13.53;53.82
77693;SHT31;66984;47.404;18.836;2023-04-29T00:48:45;13.53;53.79
77693;SHT31;66984;47.404;18.836;2023-04-29T00:49:49;13.46;54.29
77693;SHT31;66984;47.404;18.836;2023-04-29T00:50:52;13.37;54.36
77693;SHT31;66984;47.404;18.836;2023-04-29T00:51:56;13.39;54.37
77693;SHT31;66984;47.404;18.836;2023-04-29T00:53:00;13.37;54.29
77693;SHT31;66984;47.404;18.836;2023-04-29T00:54:06;13.40;54.46
77693;SHT31;66984;47.404;18.836;2023-04-29T00:55:10;13.37;54.50
77693;SHT31;66984;47.404;18.836;2023-04-29T00:56:17;13.35;54.90
77693;SHT31;66984;47.404;18.836;2023-04-29T00:57:22;13.30;55.40
77693;SHT31;66984;47.404;18.836;2023-04-29T00:58:25;13.30;56.40
77693;SHT31;66984;47.404;18.836;2023-04-29T00:59:35;13.27;56.44
77693;SHT31;66984;47.404;18.836;2023-04-29T01:00:38;13.26;56.61
77693;SHT31;66984;47.404;18.836;2023-04-29T01:01:43;13.24;56.56
77693;SHT31;66984;47.404;18.836;2023-04-29T01:02:47;13.15;56.34
77693;SHT31;66984;47.404;18.836;2023-04-29T01:03:51;13.10;56.61
77693;SHT31;66984;47.404;18.836;2023-04-29T01:04:54;13.12;56.78
77693;SHT31;66984;47.404;18.836;2023-04-29T01:06:11;13.13;56.21
77693;SHT31;66984;47.404;18.836;2023-04-29T01:07:21;13.09;56.62
77693;SHT31;66984;47.404;18.836;2023-04-29T01:08:29;13.06;55.88
77693;SHT31;66984;47.404;18.836;2023-04-29T01:10:53;13.05;56.08
77693;SHT31;66984;47.404;18.836;2023-04-29T01:13:20;13.08;55.67
77693;SHT31;66984;47.404;18.836;2023-04-29T01:14:26;13.03;55.40
77693;SHT31;66984;47.404;18.836;2023-04-29T01:16:02;13.06;55.03
77693;SHT31;66984;47.404;18.836;2023-04-29T01:17:10;13.08;55.06
77693;SHT31;66984;47.404;18.836;2023-04-29T01:18:22;13.08;55.08
77693;SHT31;66984;47.404;18.836;2023-04-29T01:19:51;13.09;55.02
77693;SHT31;66984;47.404;18.836;2023-04-29T01:20:57;13.10;55.28
77693;SHT31;66984;47.404;18.836;2023-04-29T01:22:01;13.09;54.80
77693;SHT31;66984;47.404;18.836;2023-04-29T01:23:04;13.15;54.64
77693;SHT31;66984;47.404;18.836;2023-04-29T01:24:07;13.12;54.08
77693;SHT31;66984;47.404;18.836;2023-04-29T01:25:10;13.12;54.11
77693;SHT31;66984;47.404;18.836;2023-04-29T01:26:12;13.09;53.45
77693;SHT31;66984;47.404;18.836;2023-04-29T01:27:40;13.09;53.60
77693;SHT31;66984;47.404;18.836;2023-04-29T01:29:09;13.10;53.84
77693;SHT31;66984;47.404;18.836;2023-04-29T01:31:48;13.09;54.20
77693;SHT31;66984;47.404;18.836;2023-04-29T01:33:05;13.03;54.27
77693;SHT31;66984;47.404;18.836;2023-04-29T01:34:22;13.02;54.54
77693;SHT31;66984;47.404;18.836;2023-04-29T01:37:32;13.03;54.73
77693;SHT31;66984;47.404;18.836;2023-04-29T01:39:02;13.03;54.72
77693;SHT31;66984;47.404;18.836;2023-04-29T01:40:15;13.02;54.69
77693;SHT31;66984;47.404;18.836;2023-04-29T01:41:43;13.03;54.33
77693;SHT31;66984;47.404;18.836;2023-04-29T01:43:01;12.96;54.12
77693;SHT31;66984;47.404;18.836;2023-04-29T01:44:07;12.96;53.97
77693;SHT31;66984;47.404;18.836;2023-04-29T01:45:13;12.99;54.05
77693;SHT31;66984;47.404;18.836;2023-04-29T01:46:18;13.05;54.42
77693;SHT31;66984;47.404;18.836;2023-04-29T01:47:23;13.06;54.24
77693;SHT31;66984;47.404;18.836;2023-04-29T01:48:27;13.00;54.08
77693;SHT31;66984;47.404;18.836;2023-04-29T01:49:34;13.00;54.37
77693;SHT31;66984;47.404;18.836;2023-04-29T01:50:37;13.02;54.39
77693;SHT31;66984;47.404;18.836;2023-04-29T01:51:40;13.00;54.19
77693;SHT31;66984;47.404;18.836;2023-04-29T01:52:43;12.99;54.07
77693;SHT31;66984;47.404;18.836;2023-04-29T01:53:46;13.06;53.64
77693;SHT31;66984;47.404;18.836;2023-04-29T01:54:49;13.06;53.98
77693;SHT31;66984;47.404;18.836;2023-04-29T01:55:52;13.08;54.04
77693;SHT31;66984;47.404;18.836;2023-04-29T01:56:55;13.10;54.22
77693;SHT31;66984;47.404;18.836;2023-04-29T01:57:59;13.12;53.98
77693;SHT31;66984;47.404;18.836;2023-04-29T01:59:01;13.12;53.12
77693;SHT31;66984;47.404;18.836;2023-04-29T02:00:05;13.13;53.50
77693;SHT31;66984;47.404;18.836;2023-04-29T02:01:08;13.15;52.95
77693;SHT31;66984;47.404;18.836;2023-04-29T02:02:12;13.16;52.86
77693;SHT31;66984;47.404;18.836;2023-04-29T02:03:17;13.13;52.31
77693;SHT31;66984;47.404;18.836;2023-04-29T02:04:19;13.15;52.21
77693;SHT31;66984;47.404;18.836;2023-04-29T02:05:22;13.16;52.58
77693;SHT31;66984;47.404;18.836;2023-04-29T02:06:25;13.15;52.78
77693;SHT31;66984;47.404;18.836;2023-04-29T02:07:29;13.12;52.86
77693;SHT31;66984;47.404;18.836;2023-04-29T02:08:32;13.06;52.70
77693;SHT31;66984;47.404;18.836;2023-04-29T02:09:35;13.10;52.66
77693;SHT31;66984;47.404;18.836;2023-04-29T02:10:38;13.10;52.59
77693;SHT31;66984;47.404;18.836;2023-04-29T02:11:41;13.09;52.79
77693;SHT31;66984;47.404;18.836;2023-04-29T02:12:44;13.15;52.68
77693;SHT31;66984;47.404;18.836;2023-04-29T02:13:48;13.09;52.45
77693;SHT31;66984;47.404;18.836;2023-04-29T02:14:51;13.09;52.33
77693;SHT31;66984;47.404;18.836;2023-04-29T02:15:54;13.03;52.04
77693;SHT31;66984;47.404;18.836;2023-04-29T02:16:57;13.06;52.21
77693;SHT31;66984;47.404;18.836;2023-04-29T02:18:00;13.05;52.61
77693;SHT31;66984;47.404;18.836;2023-04-29T02:19:03;13.03;52.87
77693;SHT31;66984;47.404;18.836;2023-04-29T02:20:07;13.02;53.45
77693;SHT31;66984;47.404;18.836;2023-04-29T02:21:10;13.02;53.50
77693;SHT31;66984;47.404;18.836;2023-04-29T02:22:13;13.02;53.60
77693;SHT31;66984;47.404;18.836;2023-04-29T02:23:16;12.99;54.04
77693;SHT31;66984;47.404;18.836;2023-04-29T02:24:19;12.98;54.15
77693;SHT31;66984;47.404;18.836;2023-04-29T02:25:22;12.98;54.29
77693;SHT31;66984;47.404;18.836;2023-04-29T02:26:25;12.93;54.47
77693;SHT31;66984;47.404;18.836;2023-04-29T02:27:28;12.89;54.43
77693;SHT31;66984;47.404;18.836;2023-04-29T02:28:32;12.93;54.18
77693;SHT31;66984;47.404;18.836;2023-04-29T02:29:35;12.91;54.04
77693;SHT31;66984;47.404;18.836;2023-04-29T02:30:38;12.92;53.63
77693;SHT31;66984;47.404;18.836;2023-04-29T02:31:42;12.88;53.58
77693;SHT31;66984;47.404;18.836;2023-04-29T02:32:44;12.88;53.57
77693;SHT31;66984;47.404;18.836;2023-04-29T02:33:47;12.92;53.66
77693;SHT31;66984;47.404;18.836;2023-04-29T02:34:50;12.92;53.95
77693;SHT31;66984;47.404;18.836;2023-04-29T02:35:56;12.92;53.97
77693;SHT31;66984;47.404;18.836;2023-04-29T02:36:58;12.92;54.04
77693;SHT31;66984;47.404;18.836;2023-04-29T02:38:01;12.93;54.29
77693;SHT31;66984;47.404;18.836;2023-04-29T02:39:04;12.98;54.30
77693;SHT31;66984;47.404;18.836;2023-04-29T02:40:07;12.99;54.07
77693;SHT31;66984;47.404;18.836;2023-04-29T02:41:15;13.00;54.12
77693;SHT31;66984;47.404;18.836;2023-04-29T02:42:18;12.99;54.23
77693;SHT31;66984;47.404;18.836;2023-04-29T02:43:21;12.96;54.46
77693;SHT31;66984;47.404;18.836;2023-04-29T02:44:24;12.92;54.43
77693;SHT31;66984;47.404;18.836;2023-04-29T02:45:27;12.89;54.66
77693;SHT31;66984;47.404;18.836;2023-04-29T02:46:30;12.92;54.37
77693;SHT31;66984;47.404;18.836;2023-04-29T02:47:35;12.95;54.15
77693;SHT31;66984;47.404;18.836;2023-04-29T02:48:38;12.95;54.03
77693;SHT31;66984;47.404;18.836;2023-04-29T02:49:41;12.91;54.12
77693;SHT31;66984;47.404;18.836;2023-04-29T02:50:43;12.95;54.07
77693;SHT31;66984;47.404;18.836;2023-04-29T02:51:46;12.99;54.11
77693;SHT31;66984;47.404;18.836;2023-04-29T02:52:51;13.00;54.14
77693;SHT31;66984;47.404;18.836;2023-04-29T02:53:54;13.02;53.83
77693;SHT31;66984;47.404;18.836;2023-04-29T02:54:57;13.02;54.03
77693;SHT31;66984;47.404;18.836;2023-04-29T02:56:00;13.05;54.28
77693;SHT31;66984;47.404;18.836;2023-04-29T02:57:03;13.03;54.38
77693;SHT31;66984;47.404;18.836;2023-04-29T02:58:06;13.03;54.25
77693;SHT31;66984;47.404;18.836;2023-04-29T02:59:09;13.05;54.29
77693;SHT31;66984;47.404;18.836;2023-04-29T03:00:12;13.03;54.36
77693;SHT31;66984;47.404;18.836;2023-04-29T03:01:15;13.05;54.33
77693;SHT31;66984;47.404;18.836;2023-04-29T03:02:18;13.06;54.46
77693;SHT31;66984;47.404;18.836;2023-04-29T03:03:21;13.12;54.55
77693;SHT31;66984;47.404;18.836;2023-04-29T03:04:25;13.09;54.56
77693;SHT31;66984;47.404;18.836;2023-04-29T03:05:28;13.13;54.69
77693;SHT31;66984;47.404;18.836;2023-04-29T03:06:31;13.15;54.66
77693;SHT31;66984;47.404;18.836;2023-04-29T03:07:34;13.17;54.53
77693;SHT31;66984;47.404;18.836;2023-04-29T03:08:37;13.19;54.70
77693;SHT31;66984;47.404;18.836;2023-04-29T03:09:40;13.19;54.79
77693;SHT31;66984;47.404;18.836;2023-04-29T03:10:43;13.22;54.90
77693;SHT31;66984;47.404;18.836;2023-04-29T03:11:46;13.19;54.77
77693;SHT31;66984;47.404;18.836;2023-04-29T03:12:49;13.22;54.75
77693;SHT31;66984;47.404;18.836;2023-04-29T03:13:52;13.17;54.88
77693;SHT31;66984;47.404;18.836;2023-04-29T03:14:55;13.19;54.96
77693;SHT31;66984;47.404;18.836;2023-04-29T03:15:58;13.20;54.97
77693;SHT31;66984;47.404;18.836;2023-04-29T03:17:02;13.20;55.00
77693;SHT31;66984;47.404;18.836;2023-04-29T03:18:06;13.24;55.06
77693;SHT31;66984;47.404;18.836;2023-04-29T03:19:09;13.23;55.05
77693;SHT31;66984;47.404;18.836;2023-04-29T03:20:12;13.22;55.07
77693;SHT31;66984;47.404;18.836;2023-04-29T03:21:15;13.19;55.16
77693;SHT31;66984;47.404;18.836;2023-04-29T03:22:18;13.16;55.03
77693;SHT31;66984;47.404;18.836;2023-04-29T03:23:21;13.20;55.08
77693;SHT31;66984;47.404;18.836;2023-04-29T03:24:24;13.17;55.15
77693;SHT31;66984;47.404;18.836;2023-04-29T03:25:27;13.16;55.16
77693;SHT31;66984;47.404;18.836;2023-04-29T03:26:30;13.10;54.95
77693;SHT31;66984;47.404;18.836;2023-04-29T03:27:33;13.12;55.06
77693;SHT31;66984;47.404;18.836;2023-04-29T03:28:36;13.13;55.22
77693;SHT31;66984;47.404;18.836;2023-04-29T03:29:38;13.09;55.07
77693;SHT31;66984;47.404;18.836;2023-04-29T03:30:42;13.09;54.81
77693;SHT31;66984;47.404;18.836;2023-04-29T03:31:45;13.03;54.88
77693;SHT31;66984;47.404;18.836;2023-04-29T03:32:48;13.08;55.02
77693;SHT31;66984;47.404;18.836;2023-04-29T03:33:51;13.05;55.00
77693;SHT31;66984;47.404;18.836;2023-04-29T03:34:55;13.03;54.99
77693;SHT31;66984;47.404;18.836;2023-04-29T03:35:58;12.99;54.92
77693;SHT31;66984;47.404;18.836;2023-04-29T03:37:01;12.96;54.99
77693;SHT31;66984;47.404;18.836;2023-04-29T03:38:04;12.95;55.09
77693;SHT31;66984;47.404;18.836;2023-04-29T03:39:07;13.00;55.19
77693;SHT31;66984;47.404;18.836;2023-04-29T03:40:10;12.96;55.24
77693;SHT31;66984;47.404;18.836;2023-04-29T03:41:13;13.00;55.26
77693;SHT31;66984;47.404;18.836;2023-04-29T03:42:16;12.96;55.40
77693;SHT31;66984;47.404;18.836;2023-04-29T03:43:19;12.95;55.48
77693;SHT31;66984;47.404;18.836;2023-04-29T03:44:22;12.99;55.59
77693;SHT31;66984;47.404;18.836;2023-04-29T03:45:25;13.02;55.47
77693;SHT31;66984;47.404;18.836;2023-04-29T03:46:28;13.03;55.34
77693;SHT31;66984;47.404;18.836;2023-04-29T03:47:31;13.05;55.56
77693;SHT31;66984;47.404;18.836;2023-04-29T03:48:34;13.06;55.56
77693;SHT31;66984;47.404;18.836;2023-04-29T03:49:38;13.08;55.42
77693;SHT31;66984;47.404;18.836;2023-04-29T03:50:41;13.09;55.30
77693;SHT31;66984;47.404;18.836;2023-04-29T03:51:44;13.12;55.16
77693;SHT31;66984;47.404;18.836;2023-04-29T03:52:47;13.10;55.05
77693;SHT31;66984;47.404;18.836;2023-04-29T03:53:52;13.15;54.91
77693;SHT31;66984;47.404;18.836;2023-04-29T03:54:55;13.17;54.81
77693;SHT31;66984;47.404;18.836;2023-04-29T03:55:58;13.17;54.71
77693;SHT31;66984;47.404;18.836;2023-04-29T03:57:01;13.16;54.57
77693;SHT31;66984;47.404;18.836;2023-04-29T03:58:06;13.19;54.60
77693;SHT31;66984;47.404;18.836;2023-04-29T03:59:09;13.10;54.39
77693;SHT31;66984;47.404;18.836;2023-04-29T04:00:12;13.08;54.57
77693;SHT31;66984;47.404;18.836;2023-04-29T04:01:15;13.06;54.62
77693;SHT31;66984;47.404;18.836;2023-04-29T04:02:18;13.10;54.59
77693;SHT31;66984;47.404;18.836;2023-04-29T04:03:21;13.06;54.68
77693;SHT31;66984;47.404;18.836;2023-04-29T04:04:25;13.03;55.10
77693;SHT31;66984;47.404;18.836;2023-04-29T04:05:28;13.03;54.93
77693;SHT31;66984;47.404;18.836;2023-04-29T04:06:31;13.08;54.67
77693;SHT31;66984;47.404;18.836;2023-04-29T04:07:34;13.09;54.76
77693;SHT31;66984;47.404;18.836;2023-04-29T04:08:37;13.09;54.69
77693;SHT31;66984;47.404;18.836;2023-04-29T04:09:40;13.10;54.58
77693;SHT31;66984;47.404;18.836;2023-04-29T04:10:42;13.10;54.41
77693;SHT31;66984;47.404;18.836;2023-04-29T04:11:45;13.16;54.24
77693;SHT31;66984;47.404;18.836;2023-04-29T04:12:48;13.15;54.40
77693;SHT31;66984;47.404;18.836;2023-04-29T04:13:51;13.13;54.39
77693;SHT31;66984;47.404;18.836;2023-04-29T04:14:54;13.12;54.27
77693;SHT31;66984;47.404;18.836;2023-04-29T04:15:57;13.13;54.25
77693;SHT31;66984;47.404;18.836;2023-04-29T04:17:00;13.12;54.39
77693;SHT31;66984;47.404;18.836;2023-04-29T04:18:03;13.10;54.28
77693;SHT31;66984;47.404;18.836;2023-04-29T04:19:06;13.12;54.33
77693;SHT31;66984;47.404;18.836;2023-04-29T04:20:10;13.12;54.32
77693;SHT31;66984;47.404;18.836;2023-04-29T04:21:13;13.09;54.16
77693;SHT31;66984;47.404;18.836;2023-04-29T04:22:16;13.09;54.03
77693;SHT31;66984;47.404;18.836;2023-04-29T04:23:19;13.05;54.22
77693;SHT31;66984;47.404;18.836;2023-04-29T04:24:22;12.99;53.92
77693;SHT31;66984;47.404;18.836;2023-04-29T04:25:25;12.98;54.13
77693;SHT31;66984;47.404;18.836;2023-04-29T04:26:28;12.99;54.35
77693;SHT31;66984;47.404;18.836;2023-04-29T04:27:30;12.99;54.37
77693;SHT31;66984;47.404;18.836;2023-04-29T04:28:33;13.02;54.47
77693;SHT31;66984;47.404;18.836;2023-04-29T04:29:36;13.08;54.50
77693;SHT31;66984;47.404;18.836;2023-04-29T04:30:39;13.06;54.45
77693;SHT31;66984;47.404;18.836;2023-04-29T04:31:42;13.05;54.53
77693;SHT31;66984;47.404;18.836;2023-04-29T04:32:47;13.06;54.51
77693;SHT31;66984;47.404;18.836;2023-04-29T04:33:50;13.06;54.55
77693;SHT31;66984;47.404;18.836;2023-04-29T04:34:53;13.05;54.65
77693;SHT31;66984;47.404;18.836;2023-04-29T04:35:56;13.06;54.76
77693;SHT31;66984;47.404;18.836;2023-04-29T04:36:59;13.10;54.83
77693;SHT31;66984;47.404;18.836;2023-04-29T04:38:02;13.09;54.90
77693;SHT31;66984;47.404;18.836;2023-04-29T04:39:04;13.13;54.85
77693;SHT31;66984;47.404;18.836;2023-04-29T04:40:08;13.10;54.70
77693;SHT31;66984;47.404;18.836;2023-04-29T04:41:14;13.12;54.76
77693;SHT31;66984;47.404;18.836;2023-04-29T04:42:17;13.10;55.06
77693;SHT31;66984;47.404;18.836;2023-04-29T04:43:20;13.13;55.08
77693;SHT31;66984;47.404;18.836;2023-04-29T04:44:23;13.15;55.01
77693;SHT31;66984;47.404;18.836;2023-04-29T04:45:27;13.17;54.81
77693;SHT31;66984;47.404;18.836;2023-04-29T04:46:31;13.17;54.91
77693;SHT31;66984;47.404;18.836;2023-04-29T04:47:34;13.23;54.83
77693;SHT31;66984;47.404;18.836;2023-04-29T04:48:38;13.22;54.88
77693;SHT31;66984;47.404;18.836;2023-04-29T04:49:41;13.27;55.29
77693;SHT31;66984;47.404;18.836;2023-04-29T04:50:43;13.29;55.41
77693;SHT31;66984;47.404;18.836;2023-04-29T04:51:46;13.29;55.28
77693;SHT31;66984;47.404;18.836;2023-04-29T04:52:49;13.29;55.14
77693;SHT31;66984;47.404;18.836;2023-04-29T04:53:52;13.30;55.18
77693;SHT31;66984;47.404;18.836;2023-04-29T04:54:55;13.29;55.30
77693;SHT31;66984;47.404;18.836;2023-04-29T04:56:01;13.30;55.19
77693;SHT31;66984;47.404;18.836;2023-04-29T04:57:04;13.32;55.72
77693;SHT31;66984;47.404;18.836;2023-04-29T04:58:07;13.29;56.02
77693;SHT31;66984;47.404;18.836;2023-04-29T04:59:10;13.26;56.02
77693;SHT31;66984;47.404;18.836;2023-04-29T05:00:13;13.19;55.87
77693;SHT31;66984;47.404;18.836;2023-04-29T05:01:16;13.19;55.87
77693;SHT31;66984;47.404;18.836;2023-04-29T05:02:19;13.17;55.15
77693;SHT31;66984;47.404;18.836;2023-04-29T05:03:22;13.15;55.41
77693;SHT31;66984;47.404;18.836;2023-04-29T05:04:25;13.12;55.56
77693;SHT31;66984;47.404;18.836;2023-04-29T05:05:29;13.09;55.60
77693;SHT31;66984;47.404;18.836;2023-04-29T05:06:32;13.10;55.70
77693;SHT31;66984;47.404;18.836;2023-04-29T05:07:34;13.10;56.11
77693;SHT31;66984;47.404;18.836;2023-04-29T05:08:37;13.16;56.04
77693;SHT31;66984;47.404;18.836;2023-04-29T05:09:40;13.15;56.03
77693;SHT31;66984;47.404;18.836;2023-04-29T05:10:43;13.13;56.20
77693;SHT31;66984;47.404;18.836;2023-04-29T05:11:46;13.13;55.94
77693;SHT31;66984;47.404;18.836;2023-04-29T05:12:49;13.13;56.50
77693;SHT31;66984;47.404;18.836;2023-04-29T05:13:52;13.20;56.37
77693;SHT31;66984;47.404;18.836;2023-04-29T05:14:56;13.19;56.56
77693;SHT31;66984;47.404;18.836;2023-04-29T05:16:01;13.26;56.67
77693;SHT31;66984;47.404;18.836;2023-04-29T05:17:07;13.27;57.18
77693;SHT31;66984;47.404;18.836;2023-04-29T05:18:11;13.30;56.88
77693;SHT31;66984;47.404;18.836;2023-04-29T05:19:14;13.30;56.71
77693;SHT31;66984;47.404;18.836;2023-04-29T05:20:17;13.29;56.64
77693;SHT31;66984;47.404;18.836;2023-04-29T05:21:22;13.27;56.71
77693;SHT31;66984;47.404;18.836;2023-04-29T05:22:24;13.30;56.70
77693;SHT31;66984;47.404;18.836;2023-04-29T05:23:28;13.32;56.66
77693;SHT31;66984;47.404;18.836;2023-04-29T05:24:30;13.27;56.91
77693;SHT31;66984;47.404;18.836;2023-04-29T05:25:34;13.29;56.75
77693;SHT31;66984;47.404;18.836;2023-04-29T05:26:37;13.33;56.74
77693;SHT31;66984;47.404;18.836;2023-04-29T05:27:40;13.33;56.80
77693;SHT31;66984;47.404;18.836;2023-04-29T05:28:43;13.30;56.82
77693;SHT31;66984;47.404;18.836;2023-04-29T05:29:46;13.29;57.04
77693;SHT31;66984;47.404;18.836;2023-04-29T05:30:52;13.29;57.20
77693;SHT31;66984;47.404;18.836;2023-04-29T05:31:56;13.30;57.71
77693;SHT31;66984;47.404;18.836;2023-04-29T05:32:59;13.30;57.34
77693;SHT31;66984;47.404;18.836;2023-04-29T05:34:02;13.32;57.35
77693;SHT31;66984;47.404;18.836;2023-04-29T05:35:05;13.32;57.37
77693;SHT31;66984;47.404;18.836;2023-04-29T05:36:08;13.32;56.63
77693;SHT31;66984;47.404;18.836;2023-04-29T05:37:11;13.30;56.87
77693;SHT31;66984;47.404;18.836;2023-04-29T05:38:14;13.30;56.60
77693;SHT31;66984;47.404;18.836;2023-04-29T05:39:17;13.30;56.88
77693;SHT31;66984;47.404;18.836;2023-04-29T05:40:20;13.32;57.08
77693;SHT31;66984;47.404;18.836;2023-04-29T05:41:24;13.24;57.00
77693;SHT31;66984;47.404;18.836;2023-04-29T05:42:28;13.19;56.39
77693;SHT31;66984;47.404;18.836;2023-04-29T05:43:30;13.17;56.10
77693;SHT31;66984;47.404;18.836;2023-04-29T05:44:33;13.19;55.97
77693;SHT31;66984;47.404;18.836;2023-04-29T05:45:36;13.19;56.37
77693;SHT31;66984;47.404;18.836;2023-04-29T05:46:39;13.19;56.32
77693;SHT31;66984;47.404;18.836;2023-04-29T05:47:42;13.22;56.24
77693;SHT31;66984;47.404;18.836;2023-04-29T05:48:45;13.24;56.10
77693;SHT31;66984;47.404;18.836;2023-04-29T05:49:48;13.26;56.12
77693;SHT31;66984;47.404;18.836;2023-04-29T05:50:51;13.27;55.94
77693;SHT31;66984;47.404;18.836;2023-04-29T05:51:55;13.27;56.32
77693;SHT31;66984;47.404;18.836;2023-04-29T05:52:58;13.22;56.19
77693;SHT31;66984;47.404;18.836;2023-04-29T05:54:01;13.19;56.57
77693;SHT31;66984;47.404;18.836;2023-04-29T05:55:04;13.19;56.59
77693;SHT31;66984;47.404;18.836;2023-04-29T05:56:07;13.19;57.14
77693;SHT31;66984;47.404;18.836;2023-04-29T05:57:10;13.20;56.79
77693;SHT31;66984;47.404;18.836;2023-04-29T05:58:13;13.23;56.59
77693;SHT31;66984;47.404;18.836;2023-04-29T05:59:16;13.24;56.77
77693;SHT31;66984;47.404;18.836;2023-04-29T06:00:19;13.20;56.48
77693;SHT31;66984;47.404;18.836;2023-04-29T06:01:22;13.19;56.16
77693;SHT31;66984;47.404;18.836;2023-04-29T06:02:26;13.22;56.24
77693;SHT31;66984;47.404;18.836;2023-04-29T06:03:29;13.22;56.29
77693;SHT31;66984;47.404;18.836;2023-04-29T06:04:33;13.22;56.61
77693;SHT31;66984;47.404;18.836;2023-04-29T06:05:36;13.19;56.48
77693;SHT31;66984;47.404;18.836;2023-04-29T06:06:39;13.20;56.67
77693;SHT31;66984;47.404;18.836;2023-04-29T06:07:42;13.19;56.64
77693;SHT31;66984;47.404;18.836;2023-04-29T06:08:46;13.24;56.70
77693;SHT31;66984;47.404;18.836;2023-04-29T06:09:49;13.23;56.49
77693;SHT31;66984;47.404;18.836;2023-04-29T06:10:53;13.27;56.55
77693;SHT31;66984;47.404;18.836;2023-04-29T06:11:55;13.29;56.15
77693;SHT31;66984;47.404;18.836;2023-04-29T06:12:59;13.26;55.44
77693;SHT31;66984;47.404;18.836;2023-04-29T06:14:02;13.29;55.54
77693;SHT31;66984;47.404;18.836;2023-04-29T06:15:06;13.27;55.75
77693;SHT31;66984;47.404;18.836;2023-04-29T06:16:09;13.35;55.69
77693;SHT31;66984;47.404;18.836;2023-04-29T06:17:12;13.40;55.72
77693;SHT31;66984;47.404;18.836;2023-04-29T06:18:16;13.42;55.37
77693;SHT31;66984;47.404;18.836;2023-04-29T06:19:19;13.44;55.25
77693;SHT31;66984;47.404;18.836;2023-04-29T06:20:22;13.46;55.06
77693;SHT31;66984;47.404;18.836;2023-04-29T06:21:25;13.47;55.32
77693;SHT31;66984;47.404;18.836;2023-04-29T06:22:29;13.48;54.71
77693;SHT31;66984;47.404;18.836;2023-04-29T06:23:32;13.53;54.80
77693;SHT31;66984;47.404;18.836;2023-04-29T06:24:35;13.60;54.94
77693;SHT31;66984;47.404;18.836;2023-04-29T06:25:38;13.66;55.63
77693;SHT31;66984;47.404;18.836;2023-04-29T06:26:41;13.64;54.63
77693;SHT31;66984;47.404;18.836;2023-04-29T06:27:44;13.63;54.77
77693;SHT31;66984;47.404;18.836;2023-04-29T06:28:46;13.67;54.81
77693;SHT31;66984;47.404;18.836;2023-04-29T06:29:49;13.70;56.03
77693;SHT31;66984;47.404;18.836;2023-04-29T06:30:53;13.74;55.49
77693;SHT31;66984;47.404;18.836;2023-04-29T06:31:55;13.75;55.19
77693;SHT31;66984;47.404;18.836;2023-04-29T06:32:58;13.78;54.97
77693;SHT31;66984;47.404;18.836;2023-04-29T06:34:01;13.81;54.99
77693;SHT31;66984;47.404;18.836;2023-04-29T06:35:05;13.82;55.14
77693;SHT31;66984;47.404;18.836;2023-04-29T06:36:08;13.85;54.99
77693;SHT31;66984;47.404;18.836;2023-04-29T06:37:11;13.87;55.31
77693;SHT31;66984;47.404;18.836;2023-04-29T06:38:14;13.91;55.08
77693;SHT31;66984;47.404;18.836;2023-04-29T06:39:17;13.92;55.03
77693;SHT31;66984;47.404;18.836;2023-04-29T06:40:19;13.88;54.76
77693;SHT31;66984;47.404;18.836;2023-04-29T06:41:22;13.92;54.57
77693;SHT31;66984;47.404;18.836;2023-04-29T06:42:25;13.92;54.86
77693;SHT31;66984;47.404;18.836;2023-04-29T06:43:29;13.92;55.30